sensor_id;sensor_type;location;lat;lon;timestamp;temperature;humidity
14709;DHT22;7445;50.774;4.944;2023-06-14T06:17:25;20.60;21.50
14709;DHT22;7445;50.774;4.944;2023-06-14T06:19:51;20.60;18.80
14709;DHT22;7445;50.774;4.944;2023-06-14T06:22:16;20.60;20.20
14709;DHT22;7445;50.774;4.944;2023-06-14T06:24:42;20.70;21.60
14709;DHT22;7445;50.774;4.944;2023-06-14T06:27:08;20.90;22.40
14709;DHT22;7445;50.774;4.944;2023-06-14T06:29:34;20.90;18.70
14709;DHT22;7445;50.774;4.944;2023-06-14T06:32:01;21.00;19.30
14709;DHT22;7445;50.774;4.944;2023-06-14T06:34:27;21.10;17.00
14709;DHT22;7445;50.774;4.944;2023-06-14T06:36:52;21.10;26.40
14709;DHT22;7445;50.774;4.944;2023-06-14T06:39:18;21.20;18.70
14709;DHT22;7445;50.774;4.944;2023-06-14T06:41:44;21.40;19.90
14709;DHT22;7445;50.774;4.944;2023-06-14T06:44:09;21.50;21.20
14709;DHT22;7445;50.774;4.944;2023-06-14T06:46:38;21.50;18.60
14709;DHT22;7445;50.774;4.944;2023-06-14T06:49:08;21.50;18.90
14709;DHT22;7445;50.774;4.944;2023-06-14T06:51:35;21.70;17.60
14709;DHT22;7445;50.774;4.944;2023-06-14T06:54:02;21.80;21.80
14709;DHT22;7445;50.774;4.944;2023-06-14T06:56:27;21.90;18.70
14709;DHT22;7445;50.774;4.944;2023-06-14T06:58:53;21.80;15.80
14709;DHT22;7445;50.774;4.944;2023-06-14T07:01:19;22.00;14.20
14709;DHT22;7445;50.774;4.944;2023-06-14T07:03:45;22.00;14.20
14709;DHT22;7445;50.774;4.944;2023-06-14T07:06:11;22.00;12.10
14709;DHT22;7445;50.774;4.944;2023-06-14T07:08:37;22.00;14.00
14709;DHT22;7445;50.774;4.944;2023-06-14T07:11:06;22.00;12.10
14709;DHT22;7445;50.774;4.944;2023-06-14T07:13:31;22.20;14.90
14709;DHT22;7445;50.774;4.944;2023-06-14T07:15:58;22.40;12.70
14709;DHT22;7445;50.774;4.944;2023-06-14T07:18:25;22.60;10.80
14709;DHT22;7445;50.774;4.944;2023-06-14T07:20:53;22.60;12.20
14709;DHT22;7445;50.774;4.944;2023-06-14T07:23:20;22.70;10.50
14709;DHT22;7445;50.774;4.944;2023-06-14T07:25:46;22.80;9.70
14709;DHT22;7445;50.774;4.944;2023-06-14T07:28:11;22.70;10.40
14709;DHT22;7445;50.774;4.944;2023-06-14T07:30:37;23.00;11.30
14709;DHT22;7445;50.774;4.944;2023-06-14T07:33:02;22.90;12.10
14709;DHT22;7445;50.774;4.944;2023-06-14T07:35:28;23.10;9.40
14709;DHT22;7445;50.774;4.944;2023-06-14T07:37:53;23.20;10.10
14709;DHT22;7445;50.774;4.944;2023-06-14T07:40:19;23.50;9.10
14709;DHT22;7445;50.774;4.944;2023-06-14T07:42:45;23.70;8.50
14709;DHT22;7445;50.774;4.944;2023-06-14T07:45:13;23.90;6.10
14709;DHT22;7445;50.774;4.944;2023-06-14T07:47:39;24.00;4.00
14709;DHT22;7445;50.774;4.944;2023-06-14T07:50:05;24.00;3.40
14709;DHT22;7445;50.774;4.944;2023-06-14T07:52:30;24.10;1.00
14709;DHT22;7445;50.774;4.944;2023-06-14T07:54:56;24.20;1.90
14709;DHT22;7445;50.774;4.944;2023-06-14T07:57:22;24.40;1.00
14709;DHT22;7445;50.774;4.944;2023-06-14T07:59:48;24.50;1.00
14709;DHT22;7445;50.774;4.944;2023-06-14T08:02:14;24.50;1.00
14709;DHT22;7445;50.774;4.944;2023-06-14T08:04:40;24.40;1.20
14709;DHT22;7445;50.774;4.944;2023-06-14T08:07:06;24.40;4.70
14709;DHT22;7445;50.774;4.944;2023-06-14T08:09:32;24.40;2.10
14709;DHT22;7445;50.774;4.944;2023-06-14T08:11:58;24.70;3.00
14709;DHT22;7445;50.774;4.944;2023-06-14T08:14:23;24.70;6.00
14709;DHT22;7445;50.774;4.944;2023-06-14T08:16:49;24.60;4.40
14709;DHT22;7445;50.774;4.944;2023-06-14T08:19:14;24.70;1.00
14709;DHT22;7445;50.774;4.944;2023-06-14T08:21:42;25.00;1.00
14709;DHT22;7445;50.774;4.944;2023-06-14T08:24:10;25.10;1.00
14709;DHT22;7445;50.774;4.944;2023-06-14T08:26:38;25.30;1.00
14709;DHT22;7445;50.774;4.944;2023-06-14T08:29:03;25.40;1.00
14709;DHT22;7445;50.774;4.944;2023-06-14T08:31:29;25.70;1.00
14709;DHT22;7445;50.774;4.944;2023-06-14T08:33:57;25.80;1.00
14709;DHT22;7445;50.774;4.944;2023-06-14T08:36:22;25.70;1.00
14709;DHT22;7445;50.774;4.944;2023-06-14T08:38:48;26.00;1.00
14709;DHT22;7445;50.774;4.944;2023-06-14T08:41:20;25.80;1.00
14709;DHT22;7445;50.774;4.944;2023-06-14T08:43:47;26.00;1.00
14709;DHT22;7445;50.774;4.944;2023-06-14T08:46:14;25.70;1.00
14709;DHT22;7445;50.774;4.944;2023-06-14T08:48:42;25.50;1.00
14709;DHT22;7445;50.774;4.944;2023-06-14T08:51:10;25.80;1.00
14709;DHT22;7445;50.774;4.944;2023-06-14T08:53:38;25.80;1.00
14709;DHT22;7445;50.774;4.944;2023-06-14T08:56:08;26.10;1.00
14709;DHT22;7445;50.774;4.944;2023-06-14T08:58:40;26.20;1.00
14709;DHT22;7445;50.774;4.944;2023-06-14T09:01:09;26.40;1.00
14709;DHT22;7445;50.774;4.944;2023-06-14T09:03:37;26.50;1.00
14709;DHT22;7445;50.774;4.944;2023-06-14T09:06:06;26.80;1.00
14709;DHT22;7445;50.774;4.944;2023-06-14T09:08:34;27.00;1.00
14709;DHT22;7445;50.774;4.944;2023-06-14T09:11:02;27.20;1.00
14709;DHT22;7445;50.774;4.944;2023-06-14T09:13:28;27.40;1.00
14709;DHT22;7445;50.774;4.944;2023-06-14T09:15:53;27.30;1.00
14709;DHT22;7445;50.774;4.944;2023-06-14T09:18:20;27.20;1.00
14709;DHT22;7445;50.774;4.944;2023-06-14T09:20:46;26.90;1.00
14709;DHT22;7445;50.774;4.944;2023-06-14T09:23:20;26.70;1.00
14709;DHT22;7445;50.774;4.944;2023-06-14T09:25:46;26.60;1.00
14709;DHT22;7445;50.774;4.944;2023-06-14T09:28:14;26.50;1.00
14709;DHT22;7445;50.774;4.944;2023-06-14T09:30:40;26.30;1.00
14709;DHT22;7445;50.774;4.944;2023-06-14T09:33:06;26.60;1.00
14709;DHT22;7445;50.774;4.944;2023-06-14T09:35:34;26.70;1.00
14709;DHT22;7445;50.774;4.944;2023-06-14T09:38:01;26.70;1.00
14709;DHT22;7445;50.774;4.944;2023-06-14T09:40:28;26.80;1.00
14709;DHT22;7445;50.774;4.944;2023-06-14T09:42:54;27.10;1.00
14709;DHT22;7445;50.774;4.944;2023-06-14T09:45:23;27.30;1.00
14709;DHT22;7445;50.774;4.944;2023-06-14T09:47:51;27.70;1.00
14709;DHT22;7445;50.774;4.944;2023-06-14T09:50:16;27.70;1.00
14709;DHT22;7445;50.774;4.944;2023-06-14T09:52:43;27.80;1.00
14709;DHT22;7445;50.774;4.944;2023-06-14T09:55:12;27.90;1.00
14709;DHT22;7445;50.774;4.944;2023-06-14T09:57:41;27.90;1.00
14709;DHT22;7445;50.774;4.944;2023-06-14T10:00:08;28.10;1.00
14709;DHT22;7445;50.774;4.944;2023-06-14T10:02:37;27.60;1.00
14709;DHT22;7445;50.774;4.944;2023-06-14T10:05:06;27.50;1.00
14709;DHT22;7445;50.774;4.944;2023-06-14T10:07:40;27.30;1.00
14709;DHT22;7445;50.774;4.944;2023-06-14T10:10:08;27.40;1.00
14709;DHT22;7445;50.774;4.944;2023-06-14T10:12:34;27.40;1.00
14709;DHT22;7445;50.774;4.944;2023-06-14T10:15:00;27.60;1.00
14709;DHT22;7445;50.774;4.944;2023-06-14T10:17:50;27.40;1.00
14709;DHT22;7445;50.774;4.944;2023-06-14T10:20:47;27.60;1.00
14709;DHT22;7445;50.774;4.944;2023-06-14T10:23:23;27.80;1.00
14709;DHT22;7445;50.774;4.944;2023-06-14T10:25:50;27.60;1.00
14709;DHT22;7445;50.774;4.944;2023-06-14T10:28:20;27.30;1.00
14709;DHT22;7445;50.774;4.944;2023-06-14T10:31:09;27.60;1.00
14709;DHT22;7445;50.774;4.944;2023-06-14T10:33:56;27.80;1.00
14709;DHT22;7445;50.774;4.944;2023-06-14T10:39:05;27.90;1.00
14709;DHT22;7445;50.774;4.944;2023-06-14T10:41:34;28.70;1.00
14709;DHT22;7445;50.774;4.944;2023-06-14T10:46:47;29.00;1.00
14709;DHT22;7445;50.774;4.944;2023-06-14T10:49:17;28.70;1.00
14709;DHT22;7445;50.774;4.944;2023-06-14T10:51:50;29.00;1.00
14709;DHT22;7445;50.774;4.944;2023-06-14T10:54:18;29.20;1.00
14709;DHT22;7445;50.774;4.944;2023-06-14T10:56:50;29.30;1.00
14709;DHT22;7445;50.774;4.944;2023-06-14T10:59:17;29.40;1.00
14709;DHT22;7445;50.774;4.944;2023-06-14T11:04:42;29.40;1.00
14709;DHT22;7445;50.774;4.944;2023-06-14T11:10:40;29.60;1.00
14709;DHT22;7445;50.774;4.944;2023-06-14T11:13:07;29.30;1.00
14709;DHT22;7445;50.774;4.944;2023-06-14T11:15:36;28.60;1.00
14709;DHT22;7445;50.774;4.944;2023-06-14T11:18:06;28.50;1.00
14709;DHT22;7445;50.774;4.944;2023-06-14T11:20:34;28.60;1.00
14709;DHT22;7445;50.774;4.944;2023-06-14T11:23:00;28.50;1.00
14709;DHT22;7445;50.774;4.944;2023-06-14T11:25:26;28.50;1.00
14709;DHT22;7445;50.774;4.944;2023-06-14T11:27:54;29.00;1.00
14709;DHT22;7445;50.774;4.944;2023-06-14T11:30:21;29.00;1.00
14709;DHT22;7445;50.774;4.944;2023-06-14T11:32:47;28.90;1.00
14709;DHT22;7445;50.774;4.944;2023-06-14T11:35:13;29.10;1.00
14709;DHT22;7445;50.774;4.944;2023-06-14T11:37:39;29.30;1.00
14709;DHT22;7445;50.774;4.944;2023-06-14T11:40:09;29.70;1.00
14709;DHT22;7445;50.774;4.944;2023-06-14T11:42:44;29.90;1.00
14709;DHT22;7445;50.774;4.944;2023-06-14T11:45:11;29.60;1.00
14709;DHT22;7445;50.774;4.944;2023-06-14T11:47:38;29.80;1.00
14709;DHT22;7445;50.774;4.944;2023-06-14T11:50:06;30.00;1.00
14709;DHT22;7445;50.774;4.944;2023-06-14T11:52:32;30.40;1.00
14709;DHT22;7445;50.774;4.944;2023-06-14T11:54:58;30.50;1.00
14709;DHT22;7445;50.774;4.944;2023-06-14T11:57:25;30.30;1.00
14709;DHT22;7445;50.774;4.944;2023-06-14T11:59:51;30.40;1.00
14709;DHT22;7445;50.774;4.944;2023-06-14T12:02:18;30.20;1.00
14709;DHT22;7445;50.774;4.944;2023-06-14T12:04:46;29.30;1.00
14709;DHT22;7445;50.774;4.944;2023-06-14T12:07:15;29.90;1.00
14709;DHT22;7445;50.774;4.944;2023-06-14T12:12:25;30.40;1.00
14709;DHT22;7445;50.774;4.944;2023-06-14T12:14:55;30.90;1.00
14709;DHT22;7445;50.774;4.944;2023-06-14T12:17:21;30.30;1.00
14709;DHT22;7445;50.774;4.944;2023-06-14T12:19:49;29.90;1.00
14709;DHT22;7445;50.774;4.944;2023-06-14T12:22:16;29.80;1.00
14709;DHT22;7445;50.774;4.944;2023-06-14T12:24:46;29.90;1.00
14709;DHT22;7445;50.774;4.944;2023-06-14T12:27:12;30.10;1.00
14709;DHT22;7445;50.774;4.944;2023-06-14T12:29:42;29.60;1.00
14709;DHT22;7445;50.774;4.944;2023-06-14T12:32:11;30.00;1.00
14709;DHT22;7445;50.774;4.944;2023-06-14T12:34:36;30.10;1.00
14709;DHT22;7445;50.774;4.944;2023-06-14T12:37:02;30.20;1.00
14709;DHT22;7445;50.774;4.944;2023-06-14T12:39:31;29.90;1.00
14709;DHT22;7445;50.774;4.944;2023-06-14T12:41:58;30.00;1.00
14709;DHT22;7445;50.774;4.944;2023-06-14T12:44:23;29.60;1.00
14709;DHT22;7445;50.774;4.944;2023-06-14T12:46:49;29.80;1.00
14709;DHT22;7445;50.774;4.944;2023-06-14T12:49:16;30.10;1.00
14709;DHT22;7445;50.774;4.944;2023-06-14T12:51:42;29.90;1.00
14709;DHT22;7445;50.774;4.944;2023-06-14T12:54:08;30.30;1.00
14709;DHT22;7445;50.774;4.944;2023-06-14T12:56:34;29.80;1.00
14709;DHT22;7445;50.774;4.944;2023-06-14T12:59:00;29.50;1.00
14709;DHT22;7445;50.774;4.944;2023-06-14T13:01:25;30.10;1.00
14709;DHT22;7445;50.774;4.944;2023-06-14T13:03:51;30.50;1.00
14709;DHT22;7445;50.774;4.944;2023-06-14T13:06:21;30.30;1.00
14709;DHT22;7445;50.774;4.944;2023-06-14T13:08:48;30.00;1.00
14709;DHT22;7445;50.774;4.944;2023-06-14T13:11:14;30.50;1.00
14709;DHT22;7445;50.774;4.944;2023-06-14T13:13:39;30.90;1.00
14709;DHT22;7445;50.774;4.944;2023-06-14T13:16:06;30.60;1.00
14709;DHT22;7445;50.774;4.944;2023-06-14T13:18:32;30.10;1.00
14709;DHT22;7445;50.774;4.944;2023-06-14T13:20:57;30.30;1.00
14709;DHT22;7445;50.774;4.944;2023-06-14T13:23:23;30.10;1.00
14709;DHT22;7445;50.774;4.944;2023-06-14T13:25:49;30.20;1.00
14709;DHT22;7445;50.774;4.944;2023-06-14T13:28:17;30.50;1.00
14709;DHT22;7445;50.774;4.944;2023-06-14T13:30:43;30.60;1.00
14709;DHT22;7445;50.774;4.944;2023-06-14T13:33:09;30.70;1.00
14709;DHT22;7445;50.774;4.944;2023-06-14T13:35:34;30.60;1.00
14709;DHT22;7445;50.774;4.944;2023-06-14T13:38:00;30.50;1.00
14709;DHT22;7445;50.774;4.944;2023-06-14T13:40:26;30.10;1.00
14709;DHT22;7445;50.774;4.944;2023-06-14T13:42:52;30.00;1.00
14709;DHT22;7445;50.774;4.944;2023-06-14T13:45:17;30.40;1.00
14709;DHT22;7445;50.774;4.944;2023-06-14T13:47:43;31.20;1.00
14709;DHT22;7445;50.774;4.944;2023-06-14T13:50:09;31.60;1.00
14709;DHT22;7445;50.774;4.944;2023-06-14T13:52:35;31.20;1.00
14709;DHT22;7445;50.774;4.944;2023-06-14T13:55:01;30.90;1.00
14709;DHT22;7445;50.774;4.944;2023-06-14T13:57:27;30.70;1.00
14709;DHT22;7445;50.774;4.944;2023-06-14T13:59:53;30.80;1.00
14709;DHT22;7445;50.774;4.944;2023-06-14T14:02:21;31.60;1.00
14709;DHT22;7445;50.774;4.944;2023-06-14T14:04:47;31.80;1.00
14709;DHT22;7445;50.774;4.944;2023-06-14T14:07:19;31.70;1.00
14709;DHT22;7445;50.774;4.944;2023-06-14T14:09:46;31.00;1.00
14709;DHT22;7445;50.774;4.944;2023-06-14T14:12:12;30.40;1.00
14709;DHT22;7445;50.774;4.944;2023-06-14T14:14:40;30.10;1.00
14709;DHT22;7445;50.774;4.944;2023-06-14T14:17:06;30.80;1.00
14709;DHT22;7445;50.774;4.944;2023-06-14T14:19:32;31.40;1.00
14709;DHT22;7445;50.774;4.944;2023-06-14T14:21:59;32.20;1.00
14709;DHT22;7445;50.774;4.944;2023-06-14T14:24:24;32.10;1.00
14709;DHT22;7445;50.774;4.944;2023-06-14T14:26:51;32.60;1.00
14709;DHT22;7445;50.774;4.944;2023-06-14T14:29:22;32.30;1.00
14709;DHT22;7445;50.774;4.944;2023-06-14T14:31:48;32.10;1.00
14709;DHT22;7445;50.774;4.944;2023-06-14T14:34:14;32.70;1.00
14709;DHT22;7445;50.774;4.944;2023-06-14T14:36:41;32.50;1.00
14709;DHT22;7445;50.774;4.944;2023-06-14T14:39:08;31.60;1.00
14709;DHT22;7445;50.774;4.944;2023-06-14T14:41:34;31.80;1.00
14709;DHT22;7445;50.774;4.944;2023-06-14T14:44:00;31.70;1.00
14709;DHT22;7445;50.774;4.944;2023-06-14T14:46:27;31.80;1.00
14709;DHT22;7445;50.774;4.944;2023-06-14T14:48:52;32.20;1.00
14709;DHT22;7445;50.774;4.944;2023-06-14T14:51:18;32.60;1.00
14709;DHT22;7445;50.774;4.944;2023-06-14T14:53:44;32.90;1.00
14709;DHT22;7445;50.774;4.944;2023-06-14T14:56:09;32.60;1.00
14709;DHT22;7445;50.774;4.944;2023-06-14T14:58:37;32.60;1.00
14709;DHT22;7445;50.774;4.944;2023-06-14T15:01:03;32.20;1.00
14709;DHT22;7445;50.774;4.944;2023-06-14T15:03:28;32.60;1.00
14709;DHT22;7445;50.774;4.944;2023-06-14T15:05:55;32.00;1.00
14709;DHT22;7445;50.774;4.944;2023-06-14T15:08:22;31.70;1.00
14709;DHT22;7445;50.774;4.944;2023-06-14T15:10:48;31.80;1.00
14709;DHT22;7445;50.774;4.944;2023-06-14T15:13:14;31.80;1.00
14709;DHT22;7445;50.774;4.944;2023-06-14T15:15:40;32.10;1.00
14709;DHT22;7445;50.774;4.944;2023-06-14T15:18:05;32.10;1.00
14709;DHT22;7445;50.774;4.944;2023-06-14T15:20:31;32.60;1.00
14709;DHT22;7445;50.774;4.944;2023-06-14T15:22:57;32.50;1.00
14709;DHT22;7445;50.774;4.944;2023-06-14T15:25:26;32.40;1.00
14709;DHT22;7445;50.774;4.944;2023-06-14T15:27:52;31.70;1.00
14709;DHT22;7445;50.774;4.944;2023-06-14T15:30:17;31.20;1.00
14709;DHT22;7445;50.774;4.944;2023-06-14T15:32:43;31.20;1.00
14709;DHT22;7445;50.774;4.944;2023-06-14T15:35:08;31.50;1.00
14709;DHT22;7445;50.774;4.944;2023-06-14T15:37:34;31.80;1.00
14709;DHT22;7445;50.774;4.944;2023-06-14T15:40:00;31.90;1.00
14709;DHT22;7445;50.774;4.944;2023-06-14T15:42:25;31.60;1.00
14709;DHT22;7445;50.774;4.944;2023-06-14T15:44:51;31.40;1.00
14709;DHT22;7445;50.774;4.944;2023-06-14T15:47:17;30.90;1.00
14709;DHT22;7445;50.774;4.944;2023-06-14T15:49:42;30.50;1.00
14709;DHT22;7445;50.774;4.944;2023-06-14T15:52:08;31.30;1.00
14709;DHT22;7445;50.774;4.944;2023-06-14T15:54:33;32.00;1.00
14709;DHT22;7445;50.774;4.944;2023-06-14T15:56:59;32.40;1.00
14709;DHT22;7445;50.774;4.944;2023-06-14T15:59:25;32.10;1.00
14709;DHT22;7445;50.774;4.944;2023-06-14T16:01:53;31.50;1.00
14709;DHT22;7445;50.774;4.944;2023-06-14T16:04:19;32.10;1.00
14709;DHT22;7445;50.774;4.944;2023-06-14T16:06:45;30.90;1.00
14709;DHT22;7445;50.774;4.944;2023-06-14T16:09:10;30.20;1.00
14709;DHT22;7445;50.774;4.944;2023-06-14T16:11:36;29.80;1.00
14709;DHT22;7445;50.774;4.944;2023-06-14T16:14:01;29.70;1.00
14709;DHT22;7445;50.774;4.944;2023-06-14T16:16:28;29.80;1.00
14709;DHT22;7445;50.774;4.944;2023-06-14T16:18:54;29.50;1.00
14709;DHT22;7445;50.774;4.944;2023-06-14T16:21:19;29.20;1.00
14709;DHT22;7445;50.774;4.944;2023-06-14T16:23:45;28.50;1.00
14709;DHT22;7445;50.774;4.944;2023-06-14T16:26:11;28.70;1.00
14709;DHT22;7445;50.774;4.944;2023-06-14T16:28:38;28.80;1.00
14709;DHT22;7445;50.774;4.944;2023-06-14T16:31:08;28.60;1.00
14709;DHT22;7445;50.774;4.944;2023-06-14T16:33:34;28.70;1.00
14709;DHT22;7445;50.774;4.944;2023-06-14T16:35:59;28.30;1.00
14709;DHT22;7445;50.774;4.944;2023-06-14T16:38:25;28.00;1.00
14709;DHT22;7445;50.774;4.944;2023-06-14T16:40:50;27.80;1.00
14709;DHT22;7445;50.774;4.944;2023-06-14T16:43:17;28.00;1.00
14709;DHT22;7445;50.774;4.944;2023-06-14T16:45:43;27.70;1.00
14709;DHT22;7445;50.774;4.944;2023-06-14T16:48:08;27.70;1.00
14709;DHT22;7445;50.774;4.944;2023-06-14T16:50:34;27.50;1.00
14709;DHT22;7445;50.774;4.944;2023-06-14T16:53:01;27.50;1.00
14709;DHT22;7445;50.774;4.944;2023-06-14T16:55:26;27.60;1.00
14709;DHT22;7445;50.774;4.944;2023-06-14T16:57:52;27.40;1.00
14709;DHT22;7445;50.774;4.944;2023-06-14T17:00:18;27.10;1.00
14709;DHT22;7445;50.774;4.944;2023-06-14T17:02:44;26.80;1.00
14709;DHT22;7445;50.774;4.944;2023-06-14T17:05:11;26.80;1.00
14709;DHT22;7445;50.774;4.944;2023-06-14T17:07:38;26.70;1.00
14709;DHT22;7445;50.774;4.944;2023-06-14T17:10:04;26.50;1.00
14709;DHT22;7445;50.774;4.944;2023-06-14T17:12:31;26.70;1.00
14709;DHT22;7445;50.774;4.944;2023-06-14T17:14:58;26.60;1.00
14709;DHT22;7445;50.774;4.944;2023-06-14T17:17:24;26.80;1.00
14709;DHT22;7445;50.774;4.944;2023-06-14T17:19:50;26.70;1.00
14709;DHT22;7445;50.774;4.944;2023-06-14T17:22:18;26.90;1.00
14709;DHT22;7445;50.774;4.944;2023-06-14T17:24:44;26.80;1.00
14709;DHT22;7445;50.774;4.944;2023-06-14T17:27:09;26.70;1.00
14709;DHT22;7445;50.774;4.944;2023-06-14T17:29:36;26.70;1.00
14709;DHT22;7445;50.774;4.944;2023-06-14T17:32:02;26.60;1.00
14709;DHT22;7445;50.774;4.944;2023-06-14T17:34:28;26.70;1.00
14709;DHT22;7445;50.774;4.944;2023-06-14T17:36:53;26.70;1.00
14709;DHT22;7445;50.774;4.944;2023-06-14T17:39:19;27.30;1.00
14709;DHT22;7445;50.774;4.944;2023-06-14T17:41:45;27.30;1.00
14709;DHT22;7445;50.774;4.944;2023-06-14T17:44:12;27.70;1.00
14709;DHT22;7445;50.774;4.944;2023-06-14T17:46:37;28.10;1.00
14709;DHT22;7445;50.774;4.944;2023-06-14T17:49:03;28.60;1.00
14709;DHT22;7445;50.774;4.944;2023-06-14T17:51:29;29.60;1.00
14709;DHT22;7445;50.774;4.944;2023-06-14T17:53:54;30.80;1.00
14709;DHT22;7445;50.774;4.944;2023-06-14T17:56:21;31.50;1.00
14709;DHT22;7445;50.774;4.944;2023-06-14T17:58:48;32.40;1.00
14709;DHT22;7445;50.774;4.944;2023-06-14T18:01:14;32.60;1.00
14709;DHT22;7445;50.774;4.944;2023-06-14T18:03:44;31.70;1.00
14709;DHT22;7445;50.774;4.944;2023-06-14T18:06:10;30.80;1.00
14709;DHT22;7445;50.774;4.944;2023-06-14T18:08:36;30.30;1.00
14709;DHT22;7445;50.774;4.944;2023-06-14T18:11:02;29.40;1.00
14709;DHT22;7445;50.774;4.944;2023-06-14T18:13:28;28.10;1.00
14709;DHT22;7445;50.774;4.944;2023-06-14T18:15:54;27.70;1.00
14709;DHT22;7445;50.774;4.944;2023-06-14T18:18:20;27.30;1.00
14709;DHT22;7445;50.774;4.944;2023-06-14T18:20:45;27.10;1.00
14709;DHT22;7445;50.774;4.944;2023-06-14T18:23:12;26.90;1.00
14709;DHT22;7445;50.774;4.944;2023-06-14T18:25:39;26.80;1.00
14709;DHT22;7445;50.774;4.944;2023-06-14T18:28:05;26.60;1.00
14709;DHT22;7445;50.774;4.944;2023-06-14T18:30:30;26.30;1.00
14709;DHT22;7445;50.774;4.944;2023-06-14T18:32:57;26.20;1.00
14709;DHT22;7445;50.774;4.944;2023-06-14T18:35:22;26.00;1.00
14709;DHT22;7445;50.774;4.944;2023-06-14T18:37:49;25.90;1.00
14709;DHT22;7445;50.774;4.944;2023-06-14T18:40:15;25.90;1.00
14709;DHT22;7445;50.774;4.944;2023-06-14T18:42:40;25.90;1.00
14709;DHT22;7445;50.774;4.944;2023-06-14T18:45:07;25.70;1.00
14709;DHT22;7445;50.774;4.944;2023-06-14T18:47:32;25.70;1.00
14709;DHT22;7445;50.774;4.944;2023-06-14T18:49:59;25.60;1.00
14709;DHT22;7445;50.774;4.944;2023-06-14T18:52:24;25.40;1.00
14709;DHT22;7445;50.774;4.944;2023-06-14T18:54:50;25.40;1.00
14709;DHT22;7445;50.774;4.944;2023-06-14T18:57:16;25.10;1.00
14709;DHT22;7445;50.774;4.944;2023-06-14T18:59:41;24.80;1.00
14709;DHT22;7445;50.774;4.944;2023-06-14T19:02:07;24.70;1.00
14709;DHT22;7445;50.774;4.944;2023-06-14T19:04:32;24.60;1.00
14709;DHT22;7445;50.774;4.944;2023-06-14T19:06:58;24.60;1.00
14709;DHT22;7445;50.774;4.944;2023-06-14T19:09:24;24.50;1.00
14709;DHT22;7445;50.774;4.944;2023-06-14T19:11:50;24.40;1.00
14709;DHT22;7445;50.774;4.944;2023-06-14T19:14:15;24.30;1.00
14709;DHT22;7445;50.774;4.944;2023-06-14T19:16:42;24.20;1.00
14709;DHT22;7445;50.774;4.944;2023-06-14T19:19:08;24.20;1.00
14709;DHT22;7445;50.774;4.944;2023-06-14T19:21:34;24.10;1.00
14709;DHT22;7445;50.774;4.944;2023-06-14T19:24:01;24.00;1.00
14709;DHT22;7445;50.774;4.944;2023-06-14T19:26:28;24.00;1.00
14709;DHT22;7445;50.774;4.944;2023-06-14T19:28:55;23.90;1.00
14709;DHT22;7445;50.774;4.944;2023-06-14T19:31:24;23.90;1.00
14709;DHT22;7445;50.774;4.944;2023-06-14T19:33:50;23.80;1.00
14709;DHT22;7445;50.774;4.944;2023-06-14T19:36:18;23.80;1.00
14709;DHT22;7445;50.774;4.944;2023-06-14T19:38:44;23.60;1.00
14709;DHT22;7445;50.774;4.944;2023-06-14T19:41:10;23.60;1.00
14709;DHT22;7445;50.774;4.944;2023-06-14T19:43:36;23.50;1.00
14709;DHT22;7445;50.774;4.944;2023-06-14T19:46:01;23.50;1.00
14709;DHT22;7445;50.774;4.944;2023-06-14T19:48:27;23.40;1.00
14709;DHT22;7445;50.774;4.944;2023-06-14T19:50:53;23.40;1.00
14709;DHT22;7445;50.774;4.944;2023-06-14T19:53:18;23.20;1.00
14709;DHT22;7445;50.774;4.944;2023-06-14T19:55:45;23.20;1.00
14709;DHT22;7445;50.774;4.944;2023-06-14T19:58:11;23.10;1.00
14709;DHT22;7445;50.774;4.944;2023-06-14T20:00:37;23.00;1.00
14709;DHT22;7445;50.774;4.944;2023-06-14T20:03:03;22.90;1.00
14709;DHT22;7445;50.774;4.944;2023-06-14T20:05:28;22.90;1.00
14709;DHT22;7445;50.774;4.944;2023-06-14T20:07:56;22.80;1.00
14709;DHT22;7445;50.774;4.944;2023-06-14T20:10:22;22.70;1.00
14709;DHT22;7445;50.774;4.944;2023-06-14T20:12:48;22.70;1.00
14709;DHT22;7445;50.774;4.944;2023-06-14T20:15:13;22.60;1.00
14709;DHT22;7445;50.774;4.944;2023-06-14T20:17:39;22.60;1.00
14709;DHT22;7445;50.774;4.944;2023-06-14T20:20:05;22.50;1.00
14709;DHT22;7445;50.774;4.944;2023-06-14T20:22:31;22.50;1.00
14709;DHT22;7445;50.774;4.944;2023-06-14T20:25:05;22.50;1.00
14709;DHT22;7445;50.774;4.944;2023-06-14T20:27:31;22.50;1.00
14709;DHT22;7445;50.774;4.944;2023-06-14T20:29:58;22.30;1.00
14709;DHT22;7445;50.774;4.944;2023-06-14T20:32:24;22.20;1.00
14709;DHT22;7445;50.774;4.944;2023-06-14T20:34:52;22.20;1.00
14709;DHT22;7445;50.774;4.944;2023-06-14T20:37:18;22.20;1.00
14709;DHT22;7445;50.774;4.944;2023-06-14T20:39:43;22.20;1.00
14709;DHT22;7445;50.774;4.944;2023-06-14T20:42:09;22.10;1.00
14709;DHT22;7445;50.774;4.944;2023-06-14T20:44:38;22.10;1.00
14709;DHT22;7445;50.774;4.944;2023-06-14T20:47:07;22.10;1.00
14709;DHT22;7445;50.774;4.944;2023-06-14T20:49:43;22.00;1.00
14709;DHT22;7445;50.774;4.944;2023-06-14T20:52:09;22.00;1.00
14709;DHT22;7445;50.774;4.944;2023-06-14T20:54:36;21.90;1.00
14709;DHT22;7445;50.774;4.944;2023-06-14T20:57:03;22.00;1.00
14709;DHT22;7445;50.774;4.944;2023-06-14T20:59:30;22.00;1.00
14709;DHT22;7445;50.774;4.944;2023-06-14T21:01:55;22.00;1.00
14709;DHT22;7445;50.774;4.944;2023-06-14T21:04:21;21.90;1.00
14709;DHT22;7445;50.774;4.944;2023-06-14T21:06:47;21.80;1.00
14709;DHT22;7445;50.774;4.944;2023-06-14T21:09:13;21.90;1.00
14709;DHT22;7445;50.774;4.944;2023-06-14T21:11:38;21.80;1.00
14709;DHT22;7445;50.774;4.944;2023-06-14T21:14:04;21.80;1.00
14709;DHT22;7445;50.774;4.944;2023-06-14T21:16:30;21.90;1.00
14709;DHT22;7445;50.774;4.944;2023-06-14T21:18:56;21.90;1.00
14709;DHT22;7445;50.774;4.944;2023-06-14T21:21:21;21.90;1.00
14709;DHT22;7445;50.774;4.944;2023-06-14T21:23:47;21.90;1.00
14709;DHT22;7445;50.774;4.944;2023-06-14T21:26:13;21.90;1.00
14709;DHT22;7445;50.774;4.944;2023-06-14T21:28:39;21.80;1.00
14709;DHT22;7445;50.774;4.944;2023-06-14T21:31:07;21.70;1.00
14709;DHT22;7445;50.774;4.944;2023-06-14T21:33:34;21.70;1.00
14709;DHT22;7445;50.774;4.944;2023-06-14T21:36:00;21.60;1.00
14709;DHT22;7445;50.774;4.944;2023-06-14T21:38:25;21.60;1.00
14709;DHT22;7445;50.774;4.944;2023-06-14T21:40:51;21.60;1.00
14709;DHT22;7445;50.774;4.944;2023-06-14T21:43:17;21.60;1.00
14709;DHT22;7445;50.774;4.944;2023-06-14T21:45:42;21.50;1.00
14709;DHT22;7445;50.774;4.944;2023-06-14T21:48:09;21.40;1.00
14709;DHT22;7445;50.774;4.944;2023-06-14T21:50:35;21.40;1.00
14709;DHT22;7445;50.774;4.944;2023-06-14T21:53:01;21.30;1.00
14709;DHT22;7445;50.774;4.944;2023-06-14T21:55:27;21.40;1.00
14709;DHT22;7445;50.774;4.944;2023-06-14T21:57:53;21.30;1.00
14709;DHT22;7445;50.774;4.944;2023-06-14T22:00:20;21.30;1.00
